createdAt,value
2022-12-05T00:01:45.339Z,100813.84
2022-12-05T00:04:14.921Z,100835.66
2022-12-05T00:06:43.587Z,100827.06
2022-12-05T00:09:14.041Z,100829.44
2022-12-05T00:11:44.809Z,100837.34
2022-12-05T00:14:14.455Z,100835.16
2022-12-05T00:16:43.867Z,100844.63
2022-12-05T00:19:15.904Z,100842.28
2022-12-05T00:21:44.086Z,100844.75
2022-12-05T00:24:15.560Z,100844.94
2022-12-05T00:26:43.803Z,100832.38
2022-12-05T00:29:12.101Z,100836.44
2022-12-05T00:31:39.916Z,100821.72
2022-12-05T00:34:07.955Z,100826.44
2022-12-05T00:36:36.926Z,100830.22
2022-12-05T00:39:10.548Z,100830.00
2022-12-05T00:41:38.914Z,100836.56
2022-12-05T00:44:07.390Z,100835.56
2022-12-05T00:46:36.343Z,100834.09
2022-12-05T00:49:07.543Z,100824.03
2022-12-05T00:51:39.989Z,100824.03
2022-12-05T00:54:12.910Z,100827.19
2022-12-05T00:56:41.114Z,100808.69
2022-12-05T00:59:12.844Z,100806.22
2022-12-05T01:01:42.757Z,100798.22
2022-12-05T01:04:17.617Z,100807.09
2022-12-05T01:06:46.011Z,100797.63
2022-12-05T01:09:17.668Z,100804.94
2022-12-05T01:11:45.768Z,100801.00
2022-12-05T01:14:16.959Z,100788.28
2022-12-05T01:16:47.924Z,100796.06
2022-12-05T01:19:29.739Z,100787.28
2022-12-05T01:21:58.665Z,100783.06
2022-12-05T01:24:28.089Z,100779.00
2022-12-05T01:26:56.490Z,100767.34
2022-12-05T01:29:26.302Z,100781.47
2022-12-05T01:31:55.129Z,100787.28
2022-12-05T01:34:23.498Z,100794.50
2022-12-05T01:36:51.242Z,100782.25
2022-12-05T01:39:19.319Z,100795.28
2022-12-05T01:41:49.658Z,100803.28
2022-12-05T01:44:17.442Z,100801.19
2022-12-05T01:46:51.072Z,100797.56
2022-12-05T01:49:33.981Z,100801.81
2022-12-05T01:52:23.705Z,100798.63
2022-12-05T01:54:56.544Z,100791.75
2022-12-05T01:57:25.439Z,100785.81
2022-12-05T02:00:00.563Z,100786.31
2022-12-05T02:02:31.915Z,100786.31
2022-12-05T02:05:25.558Z,100782.06
2022-12-05T02:07:54.589Z,100783.66
2022-12-05T02:10:22.660Z,100777.81
2022-12-05T02:12:51.456Z,100790.06
2022-12-05T02:15:36.007Z,100775.34
2022-12-05T02:18:38.845Z,100774.31
2022-12-05T02:21:51.053Z,100766.22
2022-12-05T02:24:42.569Z,100768.28
2022-12-05T02:27:10.481Z,100779.56
2022-12-05T02:30:00.885Z,100784.41
2022-12-05T02:32:44.190Z,100774.31
2022-12-05T02:35:41.635Z,100781.06
2022-12-05T02:38:46.628Z,100773.34
2022-12-05T02:41:34.309Z,100778.22
2022-12-05T02:44:23.513Z,100793.19
2022-12-05T02:46:54.198Z,100791.94
2022-12-05T02:49:31.848Z,100793.31
2022-12-05T02:52:02.565Z,100781.88
2022-12-05T02:54:43.046Z,100783.66
2022-12-05T02:57:13.469Z,100785.09
2022-12-05T02:59:41.420Z,100790.31
2022-12-05T03:02:22.640Z,100781.16
2022-12-05T03:04:50.801Z,100778.38
2022-12-05T03:07:22.336Z,100774.09
2022-12-05T03:10:03.846Z,100772.38
2022-12-05T03:12:38.694Z,100772.47
2022-12-05T03:15:22.742Z,100770.22
2022-12-05T03:18:38.629Z,100769.09
2022-12-05T03:21:26.136Z,100764.50
2022-12-05T03:24:01.471Z,100774.66
2022-12-05T03:26:50.499Z,100777.81
2022-12-05T03:29:26.255Z,100782.84
2022-12-05T03:32:14.293Z,100773.75
2022-12-05T03:35:12.702Z,100778.91
2022-12-05T03:38:38.018Z,100776.25
2022-12-05T03:41:26.022Z,100772.19
2022-12-05T03:44:03.752Z,100773.59
2022-12-05T03:46:37.847Z,100783.47
2022-12-05T03:49:27.968Z,100787.22
2022-12-05T03:52:09.519Z,100795.31
2022-12-05T03:55:07.694Z,100789.59
2022-12-05T03:57:44.169Z,100801.03
2022-12-05T04:00:18.964Z,100789.78
2022-12-05T04:03:07.536Z,100788.69
2022-12-05T04:05:51.247Z,100786.63
2022-12-05T04:08:51.648Z,100781.88
2022-12-05T04:11:23.407Z,100780.28
2022-12-05T04:14:19.807Z,100779.69
2022-12-05T04:17:03.430Z,100778.63
2022-12-05T04:20:02.171Z,100770.72
2022-12-05T04:22:31.859Z,100767.06
2022-12-05T04:25:21.209Z,100777.81
2022-12-05T04:28:36.259Z,100777.03
2022-12-05T04:31:41.021Z,100783.25
2022-12-05T04:34:14.702Z,100779.13
2022-12-05T04:36:47.123Z,100790.38
2022-12-05T04:39:27.896Z,100784.84
2022-12-05T04:42:19.936Z,100787.88
2022-12-05T04:44:55.739Z,100790.56
2022-12-05T04:47:30.855Z,100801.00
2022-12-05T04:50:00.803Z,100796.75
2022-12-05T04:52:31.355Z,100792.72
2022-12-05T04:55:17.048Z,100787.41
2022-12-05T04:58:11.357Z,100802.00
2022-12-05T05:01:03.727Z,100799.53
2022-12-05T05:04:02.725Z,100799.44
2022-12-05T05:06:30.798Z,100793.03
2022-12-05T05:08:59.180Z,100805.34
2022-12-05T05:11:30.648Z,100803.78
2022-12-05T05:13:58.612Z,100804.56
2022-12-05T05:16:39.474Z,100800.81
2022-12-05T05:19:09.424Z,100809.31
2022-12-05T05:21:41.362Z,100814.94
2022-12-05T05:24:11.117Z,100807.50
2022-12-05T05:26:42.497Z,100806.44
2022-12-05T05:29:12.118Z,100792.34
2022-12-05T05:31:41.713Z,100806.75
2022-12-05T05:34:11.299Z,100801.91
2022-12-05T05:36:39.954Z,100804.38
2022-12-05T05:39:12.427Z,100806.53
2022-12-05T05:41:40.819Z,100806.53
2022-12-05T05:44:08.453Z,100798.25
2022-12-05T05:46:37.145Z,100801.78
2022-12-05T05:49:05.198Z,100796.47
2022-12-05T05:51:33.421Z,100803.59
2022-12-05T05:54:01.195Z,100800.34
2022-12-05T05:56:29.576Z,100803.19
2022-12-05T05:59:01.198Z,100805.19
2022-12-05T06:01:30.121Z,100803.88
2022-12-05T06:03:58.774Z,100807.22
2022-12-05T06:06:27.079Z,100813.56
2022-12-05T06:08:55.207Z,100814.16
2022-12-05T06:11:26.921Z,100811.00
2022-12-05T06:14:03.778Z,100822.72
2022-12-05T06:16:33.519Z,100821.75
2022-12-05T06:19:01.874Z,100818.00
2022-12-05T06:21:29.836Z,100822.53
2022-12-05T06:24:00.134Z,100825.28
2022-12-05T06:26:28.091Z,100814.94
2022-12-05T06:28:55.700Z,100823.69
2022-12-05T06:31:28.502Z,100814.84
2022-12-05T06:33:56.156Z,100830.81
2022-12-05T06:36:25.192Z,100821.75
2022-12-05T06:38:52.795Z,100817.22
2022-12-05T06:41:21.847Z,100813.19
2022-12-05T06:43:49.518Z,100822.81
2022-12-05T06:46:17.419Z,100835.66
2022-12-05T06:48:45.533Z,100821.84
2022-12-05T06:51:17.368Z,100820.44
2022-12-05T06:53:45.595Z,100833.97
2022-12-05T06:56:17.591Z,100833.09
2022-12-05T06:58:48.525Z,100839.63
2022-12-05T07:01:39.278Z,100837.38
2022-12-05T07:04:23.998Z,100831.03
2022-12-05T07:06:54.530Z,100840.31
2022-12-05T07:09:44.886Z,100844.25
2022-12-05T07:12:17.564Z,100835.56
2022-12-05T07:14:48.124Z,100842.09
2022-12-05T07:17:19.025Z,100844.47
2022-12-05T07:19:50.638Z,100844.25
2022-12-05T07:22:20.541Z,100842.31
2022-12-05T07:24:48.110Z,100841.38
2022-12-05T07:27:18.429Z,100845.75
2022-12-05T07:29:48.248Z,100857.91
2022-12-05T07:32:16.233Z,100857.28
2022-12-05T07:34:43.724Z,100855.53
2022-12-05T07:37:13.027Z,100851.78
2022-12-05T07:39:40.511Z,100856.19
2022-12-05T07:42:08.397Z,100856.56
2022-12-05T07:44:36.030Z,100853.50
2022-12-05T07:47:03.950Z,100857.06
2022-12-05T07:49:31.393Z,100871.25
2022-12-05T07:52:01.360Z,100854.84
2022-12-05T07:54:28.855Z,100857.00
2022-12-05T07:56:56.658Z,100870.91
2022-12-05T07:59:24.247Z,100861.53
2022-12-05T08:01:52.230Z,100865.97
2022-12-05T08:04:19.973Z,100867.41
2022-12-05T08:06:47.846Z,100869.78
2022-12-05T08:09:15.433Z,100864.78
2022-12-05T08:11:46.963Z,100866.56
2022-12-05T08:14:17.271Z,100872.38
2022-12-05T08:16:45.129Z,100862.81
2022-12-05T08:19:17.165Z,100868.63
2022-12-05T08:21:45.309Z,100868.75
2022-12-05T08:24:13.173Z,100870.94
2022-12-05T08:26:42.172Z,100871.72
2022-12-05T08:29:15.353Z,100866.56
2022-12-05T08:31:50.163Z,100863.28
2022-12-05T08:34:20.090Z,100856.84
2022-12-05T08:36:48.213Z,100876.69
2022-12-05T08:39:19.701Z,100855.38
2022-12-05T08:41:49.028Z,100871.75
2022-12-05T08:44:17.255Z,100864.59
2022-12-05T08:46:49.046Z,100880.06
2022-12-05T08:49:17.516Z,100879.28
2022-12-05T08:51:46.170Z,100884.22
2022-12-05T08:54:14.393Z,100871.69
2022-12-05T08:56:42.472Z,100877.53
2022-12-05T08:59:10.048Z,100870.16
2022-12-05T09:01:39.593Z,100872.84
2022-12-05T09:04:08.443Z,100871.63
2022-12-05T09:06:37.295Z,100866.44
2022-12-05T09:09:09.051Z,100850.84
2022-12-05T09:11:41.551Z,100855.75
2022-12-05T09:14:09.214Z,100850.75
2022-12-05T09:16:39.582Z,100845.25
2022-12-05T09:19:17.742Z,100828.38
2022-12-05T09:21:45.728Z,100835.97
2022-12-05T09:24:14.415Z,100822.41
2022-12-05T09:26:44.578Z,100829.34
2022-12-05T09:29:17.245Z,100816.09
2022-12-05T09:31:49.993Z,100828.69
2022-12-05T09:34:20.101Z,100833.75
2022-12-05T09:36:55.751Z,100821.13
2022-12-05T09:39:26.209Z,100818.56
2022-12-05T09:42:24.009Z,100817.31
2022-12-05T09:45:18.234Z,100818.88
2022-12-05T09:48:12.191Z,100827.06
2022-12-05T09:51:03.214Z,100824.56
2022-12-05T09:53:38.835Z,100818.59
2022-12-05T09:56:32.638Z,100826.44
2022-12-05T09:59:05.696Z,100816.38
2022-12-05T10:01:58.332Z,100824.91
2022-12-05T10:04:33.576Z,100818.91
2022-12-05T10:07:12.324Z,100817.59
2022-12-05T10:10:20.335Z,100817.72
2022-12-05T10:12:57.963Z,100812.34
2022-12-05T10:15:45.555Z,100798.63
2022-12-05T10:18:39.729Z,100810.00
2022-12-05T10:21:32.039Z,100791.97
2022-12-05T10:24:27.171Z,100789.28
2022-12-05T10:27:02.455Z,100793.38
2022-12-05T10:29:52.738Z,100798.19
2022-12-05T10:32:30.341Z,100787.84
2022-12-05T10:35:15.401Z,100785.75
2022-12-05T10:37:58.769Z,100782.63
2022-12-05T10:40:41.521Z,100780.81
2022-12-05T10:43:16.649Z,100779.03
2022-12-05T10:45:47.623Z,100788.34
2022-12-05T10:48:20.195Z,100783.91
2022-12-05T10:50:57.285Z,100772.78
2022-12-05T10:53:49.563Z,100780.91
2022-12-05T10:56:35.959Z,100780.19
2022-12-05T10:59:05.913Z,100781.25
2022-12-05T11:01:36.790Z,100776.88
2022-12-05T11:04:22.732Z,100773.09
2022-12-05T11:07:00.651Z,100781.72
2022-12-05T11:09:39.000Z,100777.25
2022-12-05T11:12:09.350Z,100780.00
2022-12-05T11:14:37.523Z,100782.47
2022-12-05T11:17:06.835Z,100789.66
2022-12-05T11:19:38.247Z,100783.59
2022-12-05T11:22:09.521Z,100792.91
2022-12-05T11:24:39.536Z,100779.94
2022-12-05T11:27:16.062Z,100779.38
2022-12-05T11:30:13.685Z,100772.91
2022-12-05T11:32:41.215Z,100768.41
2022-12-05T11:35:26.711Z,100771.13
2022-12-05T11:38:03.612Z,100753.66
2022-12-05T11:40:54.366Z,100758.59
2022-12-05T11:43:53.740Z,100745.81
2022-12-05T11:46:34.029Z,100749.16
2022-12-05T11:49:44.966Z,100752.94
2022-12-05T11:52:28.758Z,100758.31
2022-12-05T11:55:51.386Z,100743.25
2022-12-05T11:58:42.724Z,100721.72
2022-12-05T12:01:40.726Z,100723.03
2022-12-05T12:04:52.000Z,100718.28
2022-12-05T12:07:55.458Z,100715.81
2022-12-05T12:10:46.026Z,100711.13
2022-12-05T12:13:34.099Z,100712.66
2022-12-05T12:16:54.241Z,100697.75
2022-12-05T12:19:45.557Z,100711.75
2022-12-05T12:22:36.693Z,100699.44
2022-12-05T12:25:28.693Z,100685.16
2022-12-05T12:28:27.385Z,100688.50
2022-12-05T12:31:18.031Z,100700.25
2022-12-05T12:34:17.374Z,100690.28
2022-12-05T12:37:14.321Z,100687.34
2022-12-05T12:40:15.317Z,100667.63
2022-12-05T12:43:44.746Z,100659.47
2022-12-05T12:46:36.191Z,100663.19
2022-12-05T12:49:40.800Z,100663.59
2022-12-05T12:52:23.012Z,100662.00
2022-12-05T12:55:21.406Z,100657.47
2022-12-05T12:58:01.459Z,100662.16
2022-12-05T13:01:01.708Z,100664.25
2022-12-05T13:03:49.884Z,100668.66
2022-12-05T13:06:49.163Z,100664.47
2022-12-05T13:09:51.874Z,100669.88
2022-12-05T13:12:27.443Z,100671.28
2022-12-05T13:15:07.753Z,100666.19
2022-12-05T13:17:36.118Z,100671.44
2022-12-05T13:20:04.785Z,100670.47
2022-12-05T13:22:32.565Z,100673.72
2022-12-05T13:25:00.625Z,100668.41
2022-12-05T13:27:28.810Z,100656.13
2022-12-05T13:30:03.225Z,100669.34
2022-12-05T13:32:42.591Z,100670.09
2022-12-05T13:35:38.114Z,100662.13
2022-12-05T13:38:24.520Z,100660.75
2022-12-05T13:41:12.638Z,100664.56
2022-12-05T13:44:00.594Z,100657.16
2022-12-05T13:46:39.411Z,100653.00
2022-12-05T13:49:50.027Z,100662.13
2022-12-05T13:52:29.005Z,100652.31
2022-12-05T13:55:30.789Z,100653.34
2022-12-05T13:58:20.838Z,100647.03
2022-12-05T14:00:52.459Z,100642.41
2022-12-05T14:03:35.458Z,100642.25
2022-12-05T14:06:04.296Z,100644.72
2022-12-05T14:08:32.112Z,100639.28
2022-12-05T14:10:59.655Z,100636.00
2022-12-05T14:13:27.487Z,100626.25
2022-12-05T14:16:16.498Z,100628.81
2022-12-05T14:18:52.760Z,100637.41
2022-12-05T14:21:50.533Z,100632.75
2022-12-05T14:24:53.201Z,100631.97
2022-12-05T14:28:10.803Z,100638.16
2022-12-05T14:31:07.241Z,100640.50
2022-12-05T14:33:35.137Z,100649.59
2022-12-05T14:36:18.926Z,100642.31
2022-12-05T14:38:46.766Z,100655.47
2022-12-05T14:41:33.842Z,100655.03
2022-12-05T14:44:08.453Z,100653.84
2022-12-05T14:46:36.966Z,100648.84
2022-12-05T14:49:56.377Z,100660.34
2022-12-05T14:52:27.823Z,100654.72
2022-12-05T14:55:12.476Z,100660.84
2022-12-05T14:57:49.167Z,100664.31
2022-12-05T15:00:23.303Z,100669.84
2022-12-05T15:02:55.688Z,100682.09
2022-12-05T15:05:31.522Z,100684.16
2022-12-05T15:08:01.719Z,100685.44
2022-12-05T15:10:34.854Z,100686.06
2022-12-05T15:13:27.919Z,100682.94
2022-12-05T15:16:16.095Z,100675.53
2022-12-05T15:18:51.810Z,100674.25
2022-12-05T15:21:53.010Z,100677.88
2022-12-05T15:24:21.170Z,100678.53
2022-12-05T15:26:58.734Z,100675.34
2022-12-05T15:29:30.532Z,100670.50
2022-12-05T15:31:59.127Z,100660.28
2022-12-05T15:34:45.028Z,100654.59
2022-12-05T15:37:40.314Z,100645.16
2022-12-05T15:40:08.315Z,100656.00
2022-12-05T15:42:44.953Z,100644.34
2022-12-05T15:45:15.696Z,100652.72
2022-12-05T15:47:49.300Z,100644.34
2022-12-05T15:50:43.355Z,100644.19
2022-12-05T15:53:41.108Z,100647.00
2022-12-05T15:56:20.666Z,100647.16
2022-12-05T15:58:51.392Z,100643.84
2022-12-05T16:01:28.981Z,100639.91
2022-12-05T16:04:08.079Z,100646.50
2022-12-05T16:06:51.754Z,100642.56
2022-12-05T16:09:28.740Z,100651.53
2022-12-05T16:12:25.617Z,100649.31
2022-12-05T16:14:59.888Z,100649.59
2022-12-05T16:17:38.012Z,100647.81
2022-12-05T16:20:18.756Z,100656.13
2022-12-05T16:22:50.802Z,100660.50
2022-12-05T16:25:25.668Z,100664.25
2022-12-05T16:28:07.609Z,100662.66
2022-12-05T16:30:37.429Z,100660.00
2022-12-05T16:33:15.599Z,100661.25
2022-12-05T16:35:46.075Z,100667.50
2022-12-05T16:38:16.730Z,100660.84
2022-12-05T16:40:50.261Z,100656.13
2022-12-05T16:43:32.450Z,100648.59
2022-12-05T16:46:16.404Z,100658.72
2022-12-05T16:49:09.129Z,100658.06
2022-12-05T16:51:53.406Z,100646.34
2022-12-05T16:54:21.580Z,100658.78
2022-12-05T16:56:49.444Z,100653.91
2022-12-05T16:59:43.807Z,100660.72
2022-12-05T17:02:19.685Z,100660.09
2022-12-05T17:04:47.843Z,100646.09
2022-12-05T17:07:15.521Z,100653.38
2022-12-05T17:09:43.554Z,100646.13
2022-12-05T17:12:21.605Z,100650.56
2022-12-05T17:14:49.836Z,100650.56
2022-12-05T17:17:18.391Z,100637.19
2022-12-05T17:19:46.594Z,100646.31
2022-12-05T17:22:16.256Z,100646.94
2022-12-05T17:24:44.785Z,100641.44
2022-12-05T17:27:13.270Z,100643.59
2022-12-05T17:29:41.394Z,100634.34
2022-12-05T17:32:11.600Z,100635.09
2022-12-05T17:34:39.583Z,100637.91
2022-12-05T17:37:07.254Z,100641.19
2022-12-05T17:39:35.384Z,100634.44
2022-12-05T17:42:05.053Z,100638.38
2022-12-05T17:44:33.419Z,100639.63
2022-12-05T17:47:07.466Z,100634.88
2022-12-05T17:49:36.554Z,100644.16
2022-12-05T17:54:53.274Z,100645.56
2022-12-05T17:57:21.011Z,100640.22
2022-12-05T17:59:49.193Z,100641.81
2022-12-05T18:02:19.042Z,100642.44
2022-12-05T18:04:47.253Z,100638.03
2022-12-05T18:07:15.279Z,100639.63
2022-12-05T18:09:43.724Z,100643.38
2022-12-05T18:12:11.523Z,100642.28
2022-12-05T18:14:40.576Z,100636.97
2022-12-05T18:17:08.254Z,100638.41
2022-12-05T18:19:36.368Z,100630.84
2022-12-05T18:22:04.986Z,100627.81
2022-12-05T18:24:33.094Z,100622.94
2022-12-05T18:27:00.774Z,100623.72
2022-12-05T18:29:28.743Z,100628.91
2022-12-05T18:31:56.342Z,100622.28
2022-12-05T18:34:24.570Z,100638.31
2022-12-05T18:36:52.246Z,100635.25
2022-12-05T18:39:21.149Z,100627.38
2022-12-05T18:41:48.789Z,100632.25
2022-12-05T18:44:16.873Z,100632.25
2022-12-05T18:46:44.557Z,100632.25
2022-12-05T18:49:13.623Z,100631.31
2022-12-05T18:51:41.933Z,100629.81
2022-12-05T18:54:09.912Z,100628.91
2022-12-05T18:56:40.108Z,100617.28
2022-12-05T18:59:20.900Z,100616.84
2022-12-05T19:01:50.260Z,100604.31
2022-12-05T19:04:21.544Z,100612.78
2022-12-05T19:06:55.929Z,100608.25
2022-12-05T19:09:27.782Z,100604.00
2022-12-05T19:11:59.042Z,100609.97
2022-12-05T19:14:33.093Z,100603.34
2022-12-05T19:17:02.297Z,100615.16
2022-12-05T19:19:30.834Z,100608.41
2022-12-05T19:21:59.470Z,100597.72
2022-12-05T19:24:27.451Z,100583.59
2022-12-05T19:26:55.035Z,100582.97
2022-12-05T19:29:23.455Z,100584.84
2022-12-05T19:31:51.186Z,100590.38
2022-12-05T19:34:19.483Z,100591.00
2022-12-05T19:36:47.231Z,100580.31
2022-12-05T19:39:19.024Z,100578.72
2022-12-05T19:41:47.283Z,100584.06
2022-12-05T19:44:15.831Z,100576.81
2022-12-05T19:46:43.887Z,100582.16
2022-12-05T19:49:14.749Z,100587.50
2022-12-05T19:51:43.387Z,100584.22
2022-12-05T19:54:13.865Z,100573.66
2022-12-05T19:56:41.631Z,100577.31
2022-12-05T19:59:12.984Z,100578.25
2022-12-05T20:01:41.563Z,100582.50
2022-12-05T20:04:13.701Z,100582.16
2022-12-05T20:06:50.110Z,100576.00
2022-12-05T20:09:21.563Z,100563.72
2022-12-05T20:11:55.174Z,100571.09
2022-12-05T20:14:25.786Z,100563.19
2022-12-05T20:16:54.067Z,100571.19
2022-12-05T20:19:24.127Z,100568.84
2022-12-05T20:21:51.756Z,100567.97
2022-12-05T20:24:19.778Z,100562.41
2022-12-05T20:26:47.480Z,100565.53
2022-12-05T20:29:15.395Z,100562.22
2022-12-05T20:31:43.999Z,100567.09
2022-12-05T20:34:14.857Z,100562.34
2022-12-05T20:36:43.498Z,100551.69
2022-12-05T20:39:15.970Z,100544.78
2022-12-05T20:41:44.833Z,100547.03
2022-12-05T20:44:16.089Z,100546.06
2022-12-05T20:46:45.824Z,100538.59
2022-12-05T20:49:13.959Z,100534.81
2022-12-05T20:51:45.355Z,100535.78
2022-12-05T20:54:16.772Z,100537.81
2022-12-05T20:56:46.350Z,100525.41
2022-12-05T20:59:15.404Z,100540.81
2022-12-05T21:01:43.839Z,100533.13
2022-12-05T21:04:12.464Z,100539.97
2022-12-05T21:06:43.061Z,100531.47
2022-12-05T21:09:16.269Z,100528.16
2022-12-05T21:11:45.709Z,100533.19
2022-12-05T21:14:13.772Z,100530.66
2022-12-05T21:16:41.635Z,100535.19
2022-12-05T21:19:10.115Z,100530.47
2022-12-05T21:21:38.019Z,100531.59
2022-12-05T21:24:08.469Z,100535.66
2022-12-05T21:26:38.764Z,100540.50
2022-12-05T21:29:07.600Z,100545.53
2022-12-05T21:31:39.706Z,100532.03
2022-12-05T21:34:15.297Z,100528.72
2022-12-05T21:36:45.005Z,100534.53
2022-12-05T21:39:14.004Z,100529.81
2022-12-05T21:41:41.716Z,100533.56
2022-12-05T21:44:09.680Z,100524.47
2022-12-05T21:46:37.525Z,100522.72
2022-12-05T21:49:05.369Z,100514.25
2022-12-05T21:51:33.448Z,100516.44
2022-12-05T21:54:01.356Z,100513.91
2022-12-05T21:56:29.523Z,100506.97
2022-12-05T21:58:57.142Z,100508.41
2022-12-05T22:01:28.537Z,100508.41
2022-12-05T22:04:02.144Z,100506.81
2022-12-05T22:06:34.347Z,100497.25
2022-12-05T22:09:12.845Z,100487.50
2022-12-05T22:11:45.347Z,100487.94
2022-12-05T22:14:13.185Z,100485.25
2022-12-05T22:16:41.274Z,100487.94
2022-12-05T22:19:09.010Z,100486.34
2022-12-05T22:21:36.914Z,100479.47
2022-12-05T22:24:04.839Z,100477.88
2022-12-05T22:26:32.862Z,100480.25
2022-12-05T22:29:00.482Z,100482.59
2022-12-05T22:31:29.542Z,100486.34
2022-12-05T22:33:57.080Z,100489.00
2022-12-05T22:36:25.331Z,100486.34
2022-12-05T22:38:52.947Z,100486.34
2022-12-05T22:41:24.347Z,100486.66
2022-12-05T22:44:00.375Z,100486.19
2022-12-05T22:46:30.501Z,100481.66
2022-12-05T22:48:58.844Z,100474.72
2022-12-05T22:51:27.691Z,100479.47
2022-12-05T22:53:56.962Z,100482.34
2022-12-05T22:56:27.791Z,100465.75
2022-12-05T22:59:01.082Z,100464.56
2022-12-05T23:01:34.685Z,100478.69
2022-12-05T23:04:10.791Z,100474.28
2022-12-05T23:06:39.217Z,100473.34
2022-12-05T23:09:11.070Z,100454.81
2022-12-05T23:11:57.584Z,100459.69
2022-12-05T23:14:25.603Z,100456.03
2022-12-05T23:16:53.139Z,100456.03
2022-12-05T23:19:21.820Z,100452.13
2022-12-05T23:21:49.456Z,100439.09
2022-12-05T23:24:17.341Z,100436.28
2022-12-05T23:26:46.145Z,100432.53
2022-12-05T23:29:15.003Z,100438.03
2022-12-05T23:31:43.609Z,100438.34
2022-12-05T23:34:12.532Z,100430.19
2022-12-05T23:36:40.453Z,100431.41
2022-12-05T23:39:08.342Z,100429.56
2022-12-05T23:41:36.271Z,100417.00
2022-12-05T23:44:04.965Z,100420.28
2022-12-05T23:46:32.635Z,100415.41
2022-12-05T23:49:00.823Z,100422.31
2022-12-05T23:51:30.752Z,100423.09
2022-12-05T23:54:02.214Z,100420.72
2022-12-05T23:56:33.393Z,100422.00
2022-12-05T23:59:04.421Z,100418.22
